sensor_id;sensor_type;location;lat;lon;timestamp;temperature;humidity
12309;DHT22;6217;48.150;17.142;2022-07-18T00:02:48;19.90;45.70
12309;DHT22;6217;48.150;17.142;2022-07-18T00:06:54;19.80;45.80
12309;DHT22;6217;48.150;17.142;2022-07-18T00:11:00;19.80;45.90
12309;DHT22;6217;48.150;17.142;2022-07-18T00:15:07;19.80;46.00
12309;DHT22;6217;48.150;17.142;2022-07-18T00:19:16;19.70;46.20
12309;DHT22;6217;48.150;17.142;2022-07-18T00:23:22;19.70;46.40
12309;DHT22;6217;48.150;17.142;2022-07-18T00:27:29;19.70;46.90
12309;DHT22;6217;48.150;17.142;2022-07-18T00:31:35;19.60;47.20
12309;DHT22;6217;48.150;17.142;2022-07-18T00:35:42;19.60;47.50
12309;DHT22;6217;48.150;17.142;2022-07-18T00:39:48;19.60;47.70
12309;DHT22;6217;48.150;17.142;2022-07-18T00:43:54;19.50;47.70
12309;DHT22;6217;48.150;17.142;2022-07-18T00:48:06;19.40;47.70
12309;DHT22;6217;48.150;17.142;2022-07-18T00:52:13;19.40;47.80
12309;DHT22;6217;48.150;17.142;2022-07-18T00:56:20;19.40;48.00
12309;DHT22;6217;48.150;17.142;2022-07-18T01:00:26;19.20;48.30
12309;DHT22;6217;48.150;17.142;2022-07-18T01:04:50;19.20;48.70
12309;DHT22;6217;48.150;17.142;2022-07-18T01:08:57;19.10;49.10
12309;DHT22;6217;48.150;17.142;2022-07-18T01:13:03;19.10;49.60
12309;DHT22;6217;48.150;17.142;2022-07-18T01:17:17;19.00;50.10
12309;DHT22;6217;48.150;17.142;2022-07-18T01:21:24;19.00;50.90
12309;DHT22;6217;48.150;17.142;2022-07-18T01:25:32;19.00;51.00
12309;DHT22;6217;48.150;17.142;2022-07-18T01:29:38;19.00;51.50
12309;DHT22;6217;48.150;17.142;2022-07-18T01:33:44;19.10;52.10
12309;DHT22;6217;48.150;17.142;2022-07-18T01:37:56;19.10;52.60
12309;DHT22;6217;48.150;17.142;2022-07-18T01:42:07;19.10;53.10
12309;DHT22;6217;48.150;17.142;2022-07-18T01:46:14;19.00;53.40
12309;DHT22;6217;48.150;17.142;2022-07-18T01:50:21;19.10;53.30
12309;DHT22;6217;48.150;17.142;2022-07-18T01:54:29;19.10;53.20
12309;DHT22;6217;48.150;17.142;2022-07-18T01:58:36;19.00;53.80
12309;DHT22;6217;48.150;17.142;2022-07-18T02:02:42;19.00;54.00
12309;DHT22;6217;48.150;17.142;2022-07-18T02:06:49;19.00;54.40
12309;DHT22;6217;48.150;17.142;2022-07-18T02:10:55;18.90;54.60
12309;DHT22;6217;48.150;17.142;2022-07-18T02:15:02;18.90;54.80
12309;DHT22;6217;48.150;17.142;2022-07-18T02:19:09;18.80;54.80
12309;DHT22;6217;48.150;17.142;2022-07-18T02:23:15;18.70;55.10
12309;DHT22;6217;48.150;17.142;2022-07-18T02:27:22;18.70;55.10
12309;DHT22;6217;48.150;17.142;2022-07-18T02:31:28;18.60;54.90
12309;DHT22;6217;48.150;17.142;2022-07-18T02:35:34;18.60;55.00
12309;DHT22;6217;48.150;17.142;2022-07-18T02:39:40;18.50;55.20
12309;DHT22;6217;48.150;17.142;2022-07-18T02:43:46;18.40;55.40
12309;DHT22;6217;48.150;17.142;2022-07-18T02:47:53;18.40;55.50
12309;DHT22;6217;48.150;17.142;2022-07-18T02:52:05;18.40;55.50
12309;DHT22;6217;48.150;17.142;2022-07-18T02:56:12;18.40;55.30
12309;DHT22;6217;48.150;17.142;2022-07-18T03:00:19;18.40;54.80
12309;DHT22;6217;48.150;17.142;2022-07-18T03:04:25;18.30;54.60
12309;DHT22;6217;48.150;17.142;2022-07-18T03:08:31;18.40;54.60
12309;DHT22;6217;48.150;17.142;2022-07-18T03:12:40;18.30;54.50
12309;DHT22;6217;48.150;17.142;2022-07-18T03:16:47;18.30;54.70
12309;DHT22;6217;48.150;17.142;2022-07-18T03:20:54;18.20;54.80
12309;DHT22;6217;48.150;17.142;2022-07-18T03:25:00;18.20;54.90
12309;DHT22;6217;48.150;17.142;2022-07-18T03:29:06;18.20;55.00
12309;DHT22;6217;48.150;17.142;2022-07-18T03:33:13;18.10;55.10
12309;DHT22;6217;48.150;17.142;2022-07-18T03:37:19;18.00;55.30
12309;DHT22;6217;48.150;17.142;2022-07-18T03:41:25;18.10;55.50
12309;DHT22;6217;48.150;17.142;2022-07-18T03:45:32;18.00;55.60
12309;DHT22;6217;48.150;17.142;2022-07-18T03:49:38;18.00;55.70
12309;DHT22;6217;48.150;17.142;2022-07-18T03:53:44;18.10;55.90
12309;DHT22;6217;48.150;17.142;2022-07-18T03:57:50;18.10;55.90
12309;DHT22;6217;48.150;17.142;2022-07-18T04:01:57;18.20;56.00
12309;DHT22;6217;48.150;17.142;2022-07-18T04:06:03;18.30;55.90
12309;DHT22;6217;48.150;17.142;2022-07-18T04:10:09;18.40;55.90
12309;DHT22;6217;48.150;17.142;2022-07-18T04:14:16;18.50;55.90
12309;DHT22;6217;48.150;17.142;2022-07-18T04:18:22;18.60;56.00
12309;DHT22;6217;48.150;17.142;2022-07-18T04:22:28;18.70;56.00
12309;DHT22;6217;48.150;17.142;2022-07-18T04:26:35;18.90;56.20
12309;DHT22;6217;48.150;17.142;2022-07-18T04:30:42;19.30;56.60
12309;DHT22;6217;48.150;17.142;2022-07-18T04:34:49;19.90;56.00
12309;DHT22;6217;48.150;17.142;2022-07-18T04:38:55;19.90;56.00
12309;DHT22;6217;48.150;17.142;2022-07-18T04:43:02;19.90;56.50
12309;DHT22;6217;48.150;17.142;2022-07-18T04:47:09;19.90;57.30
12309;DHT22;6217;48.150;17.142;2022-07-18T04:51:15;19.80;57.70
12309;DHT22;6217;48.150;17.142;2022-07-18T04:55:22;19.80;58.00
12309;DHT22;6217;48.150;17.142;2022-07-18T04:59:29;19.80;57.90
12309;DHT22;6217;48.150;17.142;2022-07-18T05:03:35;20.00;56.70
12309;DHT22;6217;48.150;17.142;2022-07-18T05:07:42;20.20;55.10
12309;DHT22;6217;48.150;17.142;2022-07-18T05:11:49;20.40;53.70
12309;DHT22;6217;48.150;17.142;2022-07-18T05:15:55;20.60;52.90
12309;DHT22;6217;48.150;17.142;2022-07-18T05:20:03;20.80;52.20
12309;DHT22;6217;48.150;17.142;2022-07-18T05:24:10;21.00;51.60
12309;DHT22;6217;48.150;17.142;2022-07-18T05:28:17;21.30;50.70
12309;DHT22;6217;48.150;17.142;2022-07-18T05:32:23;21.50;49.90
12309;DHT22;6217;48.150;17.142;2022-07-18T05:36:29;21.60;49.80
12309;DHT22;6217;48.150;17.142;2022-07-18T05:40:35;21.70;48.60
12309;DHT22;6217;48.150;17.142;2022-07-18T05:44:42;21.70;47.70
12309;DHT22;6217;48.150;17.142;2022-07-18T05:48:48;21.80;47.20
12309;DHT22;6217;48.150;17.142;2022-07-18T05:52:54;21.90;46.70
12309;DHT22;6217;48.150;17.142;2022-07-18T05:57:00;22.30;46.60
12309;DHT22;6217;48.150;17.142;2022-07-18T06:01:07;22.50;45.50
12309;DHT22;6217;48.150;17.142;2022-07-18T06:05:13;23.00;44.70
12309;DHT22;6217;48.150;17.142;2022-07-18T06:09:20;23.30;43.90
12309;DHT22;6217;48.150;17.142;2022-07-18T06:13:26;23.30;43.50
12309;DHT22;6217;48.150;17.142;2022-07-18T06:17:32;23.20;43.90
12309;DHT22;6217;48.150;17.142;2022-07-18T06:21:38;23.90;43.10
12309;DHT22;6217;48.150;17.142;2022-07-18T06:25:45;24.00;42.10
12309;DHT22;6217;48.150;17.142;2022-07-18T06:29:51;23.90;41.90
12309;DHT22;6217;48.150;17.142;2022-07-18T06:33:57;24.20;41.80
12309;DHT22;6217;48.150;17.142;2022-07-18T06:38:03;24.40;41.10
12309;DHT22;6217;48.150;17.142;2022-07-18T06:42:09;24.20;41.00
12309;DHT22;6217;48.150;17.142;2022-07-18T06:46:15;24.10;40.90
12309;DHT22;6217;48.150;17.142;2022-07-18T06:50:22;24.30;40.90
12309;DHT22;6217;48.150;17.142;2022-07-18T06:54:28;25.60;39.80
12309;DHT22;6217;48.150;17.142;2022-07-18T06:58:34;26.90;38.30
12309;DHT22;6217;48.150;17.142;2022-07-18T07:02:44;26.70;37.30
12309;DHT22;6217;48.150;17.142;2022-07-18T07:06:52;26.60;37.60
12309;DHT22;6217;48.150;17.142;2022-07-18T07:10:58;25.60;38.00
12309;DHT22;6217;48.150;17.142;2022-07-18T07:15:05;25.00;38.70
12309;DHT22;6217;48.150;17.142;2022-07-18T07:19:11;24.90;38.80
12309;DHT22;6217;48.150;17.142;2022-07-18T07:23:18;24.80;38.90
12309;DHT22;6217;48.150;17.142;2022-07-18T07:27:24;25.00;38.60
12309;DHT22;6217;48.150;17.142;2022-07-18T07:31:30;25.10;38.30
12309;DHT22;6217;48.150;17.142;2022-07-18T07:35:36;25.10;38.20
12309;DHT22;6217;48.150;17.142;2022-07-18T07:39:42;25.10;38.10
12309;DHT22;6217;48.150;17.142;2022-07-18T07:43:49;25.00;38.50
12309;DHT22;6217;48.150;17.142;2022-07-18T07:47:55;25.00;38.40
12309;DHT22;6217;48.150;17.142;2022-07-18T07:52:01;25.00;38.40
12309;DHT22;6217;48.150;17.142;2022-07-18T07:56:07;25.40;38.10
12309;DHT22;6217;48.150;17.142;2022-07-18T08:00:13;25.60;37.60
12309;DHT22;6217;48.150;17.142;2022-07-18T08:04:20;25.60;37.40
12309;DHT22;6217;48.150;17.142;2022-07-18T08:08:26;25.80;37.50
12309;DHT22;6217;48.150;17.142;2022-07-18T08:12:32;26.10;36.80
12309;DHT22;6217;48.150;17.142;2022-07-18T08:16:38;26.20;36.60
12309;DHT22;6217;48.150;17.142;2022-07-18T08:20:45;26.40;36.10
12309;DHT22;6217;48.150;17.142;2022-07-18T08:24:51;26.70;35.50
12309;DHT22;6217;48.150;17.142;2022-07-18T08:28:57;26.30;35.50
12309;DHT22;6217;48.150;17.142;2022-07-18T08:33:04;25.90;35.70
12309;DHT22;6217;48.150;17.142;2022-07-18T08:37:11;25.80;35.90
12309;DHT22;6217;48.150;17.142;2022-07-18T08:41:17;25.70;36.00
12309;DHT22;6217;48.150;17.142;2022-07-18T08:45:24;25.70;36.00
12309;DHT22;6217;48.150;17.142;2022-07-18T08:49:31;25.70;36.00
12309;DHT22;6217;48.150;17.142;2022-07-18T08:53:37;25.70;35.80
12309;DHT22;6217;48.150;17.142;2022-07-18T08:57:44;25.80;36.00
12309;DHT22;6217;48.150;17.142;2022-07-18T09:01:50;26.00;36.20
12309;DHT22;6217;48.150;17.142;2022-07-18T09:06:11;26.30;36.20
12309;DHT22;6217;48.150;17.142;2022-07-18T09:10:18;26.50;35.50
12309;DHT22;6217;48.150;17.142;2022-07-18T09:18:46;26.60;35.30
12309;DHT22;6217;48.150;17.142;2022-07-18T09:22:53;26.50;35.10
12309;DHT22;6217;48.150;17.142;2022-07-18T09:26:59;26.60;35.20
12309;DHT22;6217;48.150;17.142;2022-07-18T09:31:17;26.90;34.90
12309;DHT22;6217;48.150;17.142;2022-07-18T09:35:27;27.10;34.40
12309;DHT22;6217;48.150;17.142;2022-07-18T09:39:34;27.20;34.60
12309;DHT22;6217;48.150;17.142;2022-07-18T09:43:40;27.30;34.40
12309;DHT22;6217;48.150;17.142;2022-07-18T09:47:51;27.40;34.20
12309;DHT22;6217;48.150;17.142;2022-07-18T09:52:07;27.40;33.80
12309;DHT22;6217;48.150;17.142;2022-07-18T09:56:24;27.50;33.70
12309;DHT22;6217;48.150;17.142;2022-07-18T10:00:32;27.60;33.60
12309;DHT22;6217;48.150;17.142;2022-07-18T10:04:39;27.70;33.50
12309;DHT22;6217;48.150;17.142;2022-07-18T10:08:46;27.90;33.50
12309;DHT22;6217;48.150;17.142;2022-07-18T10:12:54;28.00;33.50
12309;DHT22;6217;48.150;17.142;2022-07-18T10:17:01;28.10;33.30
12309;DHT22;6217;48.150;17.142;2022-07-18T10:21:10;28.20;33.10
12309;DHT22;6217;48.150;17.142;2022-07-18T10:25:21;28.20;32.60
12309;DHT22;6217;48.150;17.142;2022-07-18T10:29:29;28.10;32.50
12309;DHT22;6217;48.150;17.142;2022-07-18T10:33:43;28.10;32.80
12309;DHT22;6217;48.150;17.142;2022-07-18T10:38:10;28.30;32.60
12309;DHT22;6217;48.150;17.142;2022-07-18T10:42:25;28.30;32.10
12309;DHT22;6217;48.150;17.142;2022-07-18T10:51:30;28.70;31.50
12309;DHT22;6217;48.150;17.142;2022-07-18T10:55:46;28.70;31.90
12309;DHT22;6217;48.150;17.142;2022-07-18T11:04:35;28.90;31.50
12309;DHT22;6217;48.150;17.142;2022-07-18T11:08:43;28.90;31.10
12309;DHT22;6217;48.150;17.142;2022-07-18T11:17:53;28.80;29.60
12309;DHT22;6217;48.150;17.142;2022-07-18T11:21:59;28.70;29.40
12309;DHT22;6217;48.150;17.142;2022-07-18T11:26:14;28.70;29.40
12309;DHT22;6217;48.150;17.142;2022-07-18T11:30:22;28.80;29.20
12309;DHT22;6217;48.150;17.142;2022-07-18T11:34:29;29.10;29.20
12309;DHT22;6217;48.150;17.142;2022-07-18T11:38:59;29.20;29.00
12309;DHT22;6217;48.150;17.142;2022-07-18T11:43:08;29.20;28.50
12309;DHT22;6217;48.150;17.142;2022-07-18T11:47:14;29.30;28.30
12309;DHT22;6217;48.150;17.142;2022-07-18T11:51:22;29.30;28.10
12309;DHT22;6217;48.150;17.142;2022-07-18T11:55:36;29.30;27.70
12309;DHT22;6217;48.150;17.142;2022-07-18T11:59:43;29.40;27.20
12309;DHT22;6217;48.150;17.142;2022-07-18T12:03:50;29.40;27.10
12309;DHT22;6217;48.150;17.142;2022-07-18T12:07:57;29.40;27.00
12309;DHT22;6217;48.150;17.142;2022-07-18T12:12:14;29.40;27.00
12309;DHT22;6217;48.150;17.142;2022-07-18T12:20:47;29.60;26.80
12309;DHT22;6217;48.150;17.142;2022-07-18T12:25:12;29.70;26.60
12309;DHT22;6217;48.150;17.142;2022-07-18T12:29:18;29.70;26.80
12309;DHT22;6217;48.150;17.142;2022-07-18T12:33:24;29.70;26.90
12309;DHT22;6217;48.150;17.142;2022-07-18T12:37:30;29.80;26.80
12309;DHT22;6217;48.150;17.142;2022-07-18T12:41:37;29.70;27.00
12309;DHT22;6217;48.150;17.142;2022-07-18T12:45:43;29.80;26.50
12309;DHT22;6217;48.150;17.142;2022-07-18T12:49:50;29.80;26.10
12309;DHT22;6217;48.150;17.142;2022-07-18T12:53:56;29.80;25.90
12309;DHT22;6217;48.150;17.142;2022-07-18T12:58:03;29.80;25.70
12309;DHT22;6217;48.150;17.142;2022-07-18T13:02:11;29.80;25.80
12309;DHT22;6217;48.150;17.142;2022-07-18T13:06:18;29.80;25.70
12309;DHT22;6217;48.150;17.142;2022-07-18T13:10:24;29.80;25.40
12309;DHT22;6217;48.150;17.142;2022-07-18T13:14:32;29.80;25.20
12309;DHT22;6217;48.150;17.142;2022-07-18T13:18:38;29.80;24.80
12309;DHT22;6217;48.150;17.142;2022-07-18T13:22:45;29.80;24.40
12309;DHT22;6217;48.150;17.142;2022-07-18T13:26:51;29.90;24.00
12309;DHT22;6217;48.150;17.142;2022-07-18T13:30:57;29.90;24.00
12309;DHT22;6217;48.150;17.142;2022-07-18T13:35:04;29.80;24.00
12309;DHT22;6217;48.150;17.142;2022-07-18T13:39:11;29.70;23.70
12309;DHT22;6217;48.150;17.142;2022-07-18T13:43:17;29.70;23.60
12309;DHT22;6217;48.150;17.142;2022-07-18T13:47:24;29.60;23.40
12309;DHT22;6217;48.150;17.142;2022-07-18T13:51:31;29.60;23.60
12309;DHT22;6217;48.150;17.142;2022-07-18T13:55:37;29.60;23.70
12309;DHT22;6217;48.150;17.142;2022-07-18T13:59:43;29.50;23.60
12309;DHT22;6217;48.150;17.142;2022-07-18T14:03:50;29.40;24.00
12309;DHT22;6217;48.150;17.142;2022-07-18T14:07:56;29.40;24.10
12309;DHT22;6217;48.150;17.142;2022-07-18T14:12:02;29.40;24.10
12309;DHT22;6217;48.150;17.142;2022-07-18T14:16:08;29.50;24.10
12309;DHT22;6217;48.150;17.142;2022-07-18T14:20:15;29.40;24.10
12309;DHT22;6217;48.150;17.142;2022-07-18T14:24:21;29.30;24.30
12309;DHT22;6217;48.150;17.142;2022-07-18T14:28:28;29.30;24.30
12309;DHT22;6217;48.150;17.142;2022-07-18T14:32:34;29.20;24.40
12309;DHT22;6217;48.150;17.142;2022-07-18T14:36:40;29.20;24.60
12309;DHT22;6217;48.150;17.142;2022-07-18T14:40:46;29.20;24.70
12309;DHT22;6217;48.150;17.142;2022-07-18T14:44:53;29.10;24.80
12309;DHT22;6217;48.150;17.142;2022-07-18T14:48:59;29.10;24.90
12309;DHT22;6217;48.150;17.142;2022-07-18T14:53:05;29.10;25.40
12309;DHT22;6217;48.150;17.142;2022-07-18T14:57:11;29.00;24.80
12309;DHT22;6217;48.150;17.142;2022-07-18T15:01:21;29.00;24.70
12309;DHT22;6217;48.150;17.142;2022-07-18T15:05:27;28.90;24.60
12309;DHT22;6217;48.150;17.142;2022-07-18T15:09:34;28.90;24.60
12309;DHT22;6217;48.150;17.142;2022-07-18T15:13:40;28.90;24.70
12309;DHT22;6217;48.150;17.142;2022-07-18T15:17:46;29.00;24.60
12309;DHT22;6217;48.150;17.142;2022-07-18T15:21:52;29.00;24.40
12309;DHT22;6217;48.150;17.142;2022-07-18T15:25:58;29.00;24.30
12309;DHT22;6217;48.150;17.142;2022-07-18T15:30:05;28.90;24.20
12309;DHT22;6217;48.150;17.142;2022-07-18T15:34:12;29.00;24.20
12309;DHT22;6217;48.150;17.142;2022-07-18T15:38:18;28.90;24.40
12309;DHT22;6217;48.150;17.142;2022-07-18T15:42:24;28.90;24.20
12309;DHT22;6217;48.150;17.142;2022-07-18T15:46:30;28.80;24.20
12309;DHT22;6217;48.150;17.142;2022-07-18T15:50:36;28.80;24.40
12309;DHT22;6217;48.150;17.142;2022-07-18T15:54:43;28.70;24.40
12309;DHT22;6217;48.150;17.142;2022-07-18T15:58:49;28.70;24.30
12309;DHT22;6217;48.150;17.142;2022-07-18T16:02:55;28.70;24.30
12309;DHT22;6217;48.150;17.142;2022-07-18T16:07:01;28.80;24.40
12309;DHT22;6217;48.150;17.142;2022-07-18T16:11:08;28.70;24.50
12309;DHT22;6217;48.150;17.142;2022-07-18T16:15:14;28.80;24.70
12309;DHT22;6217;48.150;17.142;2022-07-18T16:19:20;28.70;24.30
12309;DHT22;6217;48.150;17.142;2022-07-18T16:23:27;28.70;24.20
12309;DHT22;6217;48.150;17.142;2022-07-18T16:27:33;28.70;24.20
12309;DHT22;6217;48.150;17.142;2022-07-18T16:31:39;28.70;24.10
12309;DHT22;6217;48.150;17.142;2022-07-18T16:35:45;28.70;24.40
12309;DHT22;6217;48.150;17.142;2022-07-18T16:39:52;28.60;24.60
12309;DHT22;6217;48.150;17.142;2022-07-18T16:43:59;28.60;24.70
12309;DHT22;6217;48.150;17.142;2022-07-18T16:48:06;28.60;24.90
12309;DHT22;6217;48.150;17.142;2022-07-18T16:52:12;28.60;25.00
12309;DHT22;6217;48.150;17.142;2022-07-18T16:56:19;28.60;25.10
12309;DHT22;6217;48.150;17.142;2022-07-18T17:00:26;28.70;25.00
12309;DHT22;6217;48.150;17.142;2022-07-18T17:04:32;28.60;25.20
12309;DHT22;6217;48.150;17.142;2022-07-18T17:08:39;28.60;25.60
12309;DHT22;6217;48.150;17.142;2022-07-18T17:12:45;28.50;25.80
12309;DHT22;6217;48.150;17.142;2022-07-18T17:16:52;28.40;25.70
12309;DHT22;6217;48.150;17.142;2022-07-18T17:21:00;28.40;25.90
12309;DHT22;6217;48.150;17.142;2022-07-18T17:25:06;28.30;25.90
12309;DHT22;6217;48.150;17.142;2022-07-18T17:29:13;28.30;25.60
12309;DHT22;6217;48.150;17.142;2022-07-18T17:33:20;28.30;25.30
12309;DHT22;6217;48.150;17.142;2022-07-18T17:37:27;28.30;25.60
12309;DHT22;6217;48.150;17.142;2022-07-18T17:41:34;28.20;25.80
12309;DHT22;6217;48.150;17.142;2022-07-18T17:45:41;28.10;26.00
12309;DHT22;6217;48.150;17.142;2022-07-18T17:49:47;28.00;26.20
12309;DHT22;6217;48.150;17.142;2022-07-18T17:53:54;27.90;26.50
12309;DHT22;6217;48.150;17.142;2022-07-18T17:58:00;27.70;26.40
12309;DHT22;6217;48.150;17.142;2022-07-18T18:02:06;27.60;26.70
12309;DHT22;6217;48.150;17.142;2022-07-18T18:06:13;27.50;26.80
12309;DHT22;6217;48.150;17.142;2022-07-18T18:10:19;27.40;26.90
12309;DHT22;6217;48.150;17.142;2022-07-18T18:14:25;27.20;27.10
12309;DHT22;6217;48.150;17.142;2022-07-18T18:18:32;27.10;27.60
12309;DHT22;6217;48.150;17.142;2022-07-18T18:22:40;26.90;27.90
12309;DHT22;6217;48.150;17.142;2022-07-18T18:26:48;26.80;28.30
12309;DHT22;6217;48.150;17.142;2022-07-18T18:30:55;26.70;28.50
12309;DHT22;6217;48.150;17.142;2022-07-18T18:35:01;26.50;28.50
12309;DHT22;6217;48.150;17.142;2022-07-18T18:39:07;26.50;29.00
12309;DHT22;6217;48.150;17.142;2022-07-18T18:43:14;26.30;29.30
12309;DHT22;6217;48.150;17.142;2022-07-18T18:47:20;26.20;29.40
12309;DHT22;6217;48.150;17.142;2022-07-18T18:51:27;26.10;29.90
12309;DHT22;6217;48.150;17.142;2022-07-18T18:55:33;26.00;30.20
12309;DHT22;6217;48.150;17.142;2022-07-18T18:59:39;25.90;30.20
12309;DHT22;6217;48.150;17.142;2022-07-18T19:03:45;25.80;30.30
12309;DHT22;6217;48.150;17.142;2022-07-18T19:07:52;25.70;30.60
12309;DHT22;6217;48.150;17.142;2022-07-18T19:11:58;25.60;30.90
12309;DHT22;6217;48.150;17.142;2022-07-18T19:16:04;25.50;31.10
12309;DHT22;6217;48.150;17.142;2022-07-18T19:20:11;25.30;31.40
12309;DHT22;6217;48.150;17.142;2022-07-18T19:24:17;25.30;31.70
12309;DHT22;6217;48.150;17.142;2022-07-18T19:28:24;25.20;32.00
12309;DHT22;6217;48.150;17.142;2022-07-18T19:32:30;25.10;32.50
12309;DHT22;6217;48.150;17.142;2022-07-18T19:36:36;25.10;32.90
12309;DHT22;6217;48.150;17.142;2022-07-18T19:40:42;24.90;33.00
12309;DHT22;6217;48.150;17.142;2022-07-18T19:44:49;24.80;33.40
12309;DHT22;6217;48.150;17.142;2022-07-18T19:48:55;24.80;33.90
12309;DHT22;6217;48.150;17.142;2022-07-18T19:53:01;24.70;34.40
12309;DHT22;6217;48.150;17.142;2022-07-18T19:57:08;24.60;34.60
12309;DHT22;6217;48.150;17.142;2022-07-18T20:01:16;24.60;34.90
12309;DHT22;6217;48.150;17.142;2022-07-18T20:05:23;24.50;35.30
12309;DHT22;6217;48.150;17.142;2022-07-18T20:09:29;24.40;35.70
12309;DHT22;6217;48.150;17.142;2022-07-18T20:13:35;24.40;36.00
12309;DHT22;6217;48.150;17.142;2022-07-18T20:17:41;24.20;36.20
12309;DHT22;6217;48.150;17.142;2022-07-18T20:21:48;24.20;36.60
12309;DHT22;6217;48.150;17.142;2022-07-18T20:25:54;24.10;36.90
12309;DHT22;6217;48.150;17.142;2022-07-18T20:30:00;24.10;37.70
12309;DHT22;6217;48.150;17.142;2022-07-18T20:34:06;24.10;38.60
12309;DHT22;6217;48.150;17.142;2022-07-18T20:38:12;24.00;39.00
12309;DHT22;6217;48.150;17.142;2022-07-18T20:42:18;23.90;39.40
12309;DHT22;6217;48.150;17.142;2022-07-18T20:46:25;23.90;40.20
12309;DHT22;6217;48.150;17.142;2022-07-18T20:50:32;23.80;40.80
12309;DHT22;6217;48.150;17.142;2022-07-18T20:54:38;23.70;41.20
12309;DHT22;6217;48.150;17.142;2022-07-18T20:58:44;23.60;41.50
12309;DHT22;6217;48.150;17.142;2022-07-18T21:02:51;23.50;42.10
12309;DHT22;6217;48.150;17.142;2022-07-18T21:06:57;23.40;42.40
12309;DHT22;6217;48.150;17.142;2022-07-18T21:11:04;23.40;42.80
12309;DHT22;6217;48.150;17.142;2022-07-18T21:15:10;23.30;43.50
12309;DHT22;6217;48.150;17.142;2022-07-18T21:19:17;23.20;43.90
12309;DHT22;6217;48.150;17.142;2022-07-18T21:23:23;23.20;44.30
12309;DHT22;6217;48.150;17.142;2022-07-18T21:27:30;23.10;44.50
12309;DHT22;6217;48.150;17.142;2022-07-18T21:31:37;23.00;44.60
12309;DHT22;6217;48.150;17.142;2022-07-18T21:35:43;23.00;44.60
12309;DHT22;6217;48.150;17.142;2022-07-18T21:39:49;22.90;44.60
12309;DHT22;6217;48.150;17.142;2022-07-18T21:43:55;22.90;44.70
12309;DHT22;6217;48.150;17.142;2022-07-18T21:48:01;22.90;44.90
12309;DHT22;6217;48.150;17.142;2022-07-18T21:52:08;22.90;45.10
12309;DHT22;6217;48.150;17.142;2022-07-18T21:56:14;22.90;44.90
12309;DHT22;6217;48.150;17.142;2022-07-18T22:00:20;22.90;45.20
12309;DHT22;6217;48.150;17.142;2022-07-18T22:04:32;22.90;45.40
12309;DHT22;6217;48.150;17.142;2022-07-18T22:08:39;22.80;45.50
12309;DHT22;6217;48.150;17.142;2022-07-18T22:12:45;22.70;45.70
12309;DHT22;6217;48.150;17.142;2022-07-18T22:16:51;22.70;45.80
12309;DHT22;6217;48.150;17.142;2022-07-18T22:20:57;22.70;45.70
12309;DHT22;6217;48.150;17.142;2022-07-18T22:25:04;22.60;45.80
12309;DHT22;6217;48.150;17.142;2022-07-18T22:29:11;22.60;45.80
12309;DHT22;6217;48.150;17.142;2022-07-18T22:33:17;22.50;45.90
12309;DHT22;6217;48.150;17.142;2022-07-18T22:37:24;22.40;45.90
12309;DHT22;6217;48.150;17.142;2022-07-18T22:41:30;22.30;45.90
12309;DHT22;6217;48.150;17.142;2022-07-18T22:45:36;22.30;46.00
12309;DHT22;6217;48.150;17.142;2022-07-18T22:49:42;22.20;46.00
12309;DHT22;6217;48.150;17.142;2022-07-18T22:53:48;22.20;46.00
12309;DHT22;6217;48.150;17.142;2022-07-18T22:57:55;22.10;46.30
12309;DHT22;6217;48.150;17.142;2022-07-18T23:02:01;22.00;46.40
12309;DHT22;6217;48.150;17.142;2022-07-18T23:06:07;22.00;46.60
12309;DHT22;6217;48.150;17.142;2022-07-18T23:10:13;21.90;46.80
12309;DHT22;6217;48.150;17.142;2022-07-18T23:14:20;21.90;46.80
12309;DHT22;6217;48.150;17.142;2022-07-18T23:18:26;21.80;46.90
12309;DHT22;6217;48.150;17.142;2022-07-18T23:22:33;21.80;47.00
12309;DHT22;6217;48.150;17.142;2022-07-18T23:26:39;21.70;47.00
12309;DHT22;6217;48.150;17.142;2022-07-18T23:30:46;21.70;47.00
12309;DHT22;6217;48.150;17.142;2022-07-18T23:34:52;21.70;47.10
12309;DHT22;6217;48.150;17.142;2022-07-18T23:38:58;21.70;47.30
12309;DHT22;6217;48.150;17.142;2022-07-18T23:43:04;21.60;47.40
12309;DHT22;6217;48.150;17.142;2022-07-18T23:47:11;21.60;47.50
12309;DHT22;6217;48.150;17.142;2022-07-18T23:51:17;21.60;47.50
12309;DHT22;6217;48.150;17.142;2022-07-18T23:55:23;21.60;47.70
12309;DHT22;6217;48.150;17.142;2022-07-18T23:59:29;21.50;47.70
